Time;durP1;ratioP1;P1;durP2;ratioP2;P2;SDS_P1;SDS_P2;PMS_P1;PMS_P2;Temp;Humidity;BMP_temperature;BMP_pressure;BME280_temperature;BME280_humidity;BME280_pressure;Samples;Min_cycle;Max_cycle;Signal;HPM_P1;HPM_P2
2023/06/08 00:00:17;;;;;;;22.38;11.57;;;13.30;99.90;;;;;;4966837;28;20233;-73
2023/06/08 00:02:44;;;;;;;25.60;13.20;;;13.30;99.90;;;;;;4969312;28;20236;-73
2023/06/08 00:05:13;;;;;;;20.33;11.77;;;13.30;99.90;;;;;;4965994;28;20623;-74
2023/06/08 00:07:41;;;;;;;16.83;11.15;;;13.30;99.90;;;;;;4972127;28;20232;-74
2023/06/08 00:10:10;;;;;;;24.55;12.13;;;13.20;99.90;;;;;;4973013;28;20210;-72
2023/06/08 00:12:37;;;;;;;23.80;12.73;;;13.20;99.90;;;;;;4968535;28;20243;-74
2023/06/08 00:15:05;;;;;;;22.88;11.93;;;13.20;99.90;;;;;;4971518;28;20274;-75
2023/06/08 00:17:32;;;;;;;22.08;12.95;;;13.20;99.90;;;;;;4972454;28;20210;-73
2023/06/08 00:20:00;;;;;;;25.17;13.13;;;13.20;99.90;;;;;;4971283;28;20288;-74
2023/06/08 00:22:27;;;;;;;28.95;12.60;;;13.20;99.90;;;;;;4965984;28;20225;-73
2023/06/08 00:24:54;;;;;;;20.50;12.45;;;13.20;99.90;;;;;;4967841;28;20289;-74
2023/06/08 00:27:22;;;;;;;25.83;13.18;;;13.20;99.90;;;;;;4969389;28;20241;-74
2023/06/08 00:29:49;;;;;;;20.98;14.75;;;13.20;99.90;;;;;;4967900;28;20300;-73
2023/06/08 00:32:16;;;;;;;24.58;14.20;;;13.20;99.90;;;;;;4967789;28;20226;-74
2023/06/08 00:34:43;;;;;;;25.23;12.40;;;13.20;99.90;;;;;;4967759;28;20270;-72
2023/06/08 00:37:09;;;;;;;30.05;14.57;;;13.20;99.90;;;;;;4966674;28;20230;-74
2023/06/08 00:39:36;;;;;;;27.95;12.55;;;13.10;99.90;;;;;;4963904;28;20207;-72
2023/06/08 00:42:05;;;;;;;29.38;14.88;;;13.20;99.90;;;;;;4970172;28;20316;-73
2023/06/08 00:44:33;;;;;;;31.08;13.77;;;13.20;99.90;;;;;;4972072;28;20238;-72
2023/06/08 00:47:00;;;;;;;21.50;13.88;;;13.20;99.90;;;;;;4971465;28;20297;-71
2023/06/08 00:49:31;;;;;;;26.92;14.40;;;13.20;99.90;;;;;;4962463;28;20213;-73
2023/06/08 00:51:58;;;;;;;25.05;15.77;;;13.20;99.90;;;;;;4965624;28;20643;-74
2023/06/08 00:54:51;;;;;;;21.45;15.15;;;13.20;99.90;;;;;;4968231;28;20213;-74
2023/06/08 00:57:19;;;;;;;32.80;16.02;;;13.20;99.90;;;;;;4968344;28;20201;-73
2023/06/08 00:59:49;;;;;;;28.90;16.20;;;13.20;99.90;;;;;;4971261;28;20213;-73
2023/06/08 01:02:17;;;;;;;26.45;15.65;;;13.20;99.90;;;;;;4964409;28;20221;-71
2023/06/08 01:04:44;;;;;;;28.63;14.13;;;13.20;99.90;;;;;;4969094;28;20213;-73
2023/06/08 01:07:19;;;;;;;28.13;14.82;;;13.20;99.90;;;;;;4972395;28;20210;-72
2023/06/08 01:09:55;;;;;;;23.92;13.98;;;13.20;99.90;;;;;;4973804;28;20671;-71
2023/06/08 01:12:29;;;;;;;27.05;14.95;;;13.20;99.90;;;;;;4974812;28;20266;-72
2023/06/08 01:15:10;;;;;;;25.17;14.18;;;13.20;99.90;;;;;;4975731;28;20292;-74
2023/06/08 01:17:40;;;;;;;27.00;14.00;;;13.20;99.90;;;;;;4976980;28;20198;-72
2023/06/08 01:20:21;;;;;;;30.15;15.98;;;13.20;99.90;;;;;;4962761;28;20209;-72
2023/06/08 01:23:00;;;;;;;33.35;17.73;;;13.20;99.90;;;;;;4966848;28;20397;-73
2023/06/08 01:25:29;;;;;;;29.55;16.85;;;13.10;99.90;;;;;;4962639;28;20202;-74
2023/06/08 01:28:04;;;;;;;23.20;14.15;;;13.10;99.90;;;;;;4965112;28;20213;-75
2023/06/08 01:30:31;;;;;;;21.88;13.50;;;13.10;99.90;;;;;;4964419;28;20220;-73
2023/06/08 01:32:58;;;;;;;28.50;15.90;;;13.20;99.90;;;;;;4966620;28;20691;-73
2023/06/08 01:35:25;;;;;;;30.85;14.98;;;13.20;99.90;;;;;;4961534;28;20307;-73
2023/06/08 01:37:59;;;;;;;23.42;14.63;;;13.20;99.90;;;;;;4964739;28;20241;-72
2023/06/08 01:40:34;;;;;;;18.05;12.93;;;13.20;99.90;;;;;;4963705;28;20297;-73
2023/06/08 01:43:03;;;;;;;29.95;13.90;;;13.20;99.90;;;;;;4972062;28;20762;-73
2023/06/08 01:45:33;;;;;;;24.73;13.05;;;13.20;99.90;;;;;;4969010;28;20302;-74
2023/06/08 01:48:04;;;;;;;21.25;14.32;;;13.30;99.90;;;;;;4969235;28;20296;-74
2023/06/08 01:50:33;;;;;;;23.08;14.27;;;13.20;99.90;;;;;;4971789;28;20235;-75
2023/06/08 01:53:01;;;;;;;31.85;14.60;;;13.30;99.90;;;;;;4965052;28;20240;-73
2023/06/08 01:55:28;;;;;;;24.20;13.50;;;13.20;99.90;;;;;;4973961;28;20229;-74
2023/06/08 01:57:57;;;;;;;20.42;14.15;;;13.20;99.90;;;;;;4969422;28;20199;-74
2023/06/08 02:00:25;;;;;;;25.10;13.25;;;13.20;99.90;;;;;;4969387;28;20723;-75
2023/06/08 02:02:52;;;;;;;23.15;13.50;;;13.20;99.90;;;;;;4978609;28;20563;-75
2023/06/08 02:05:19;;;;;;;24.40;14.93;;;13.20;99.90;;;;;;4969634;28;20261;-73
2023/06/08 02:07:47;;;;;;;23.85;12.52;;;13.20;99.90;;;;;;4972082;28;20218;-72
2023/06/08 02:10:16;;;;;;;29.75;15.00;;;13.20;99.90;;;;;;4970555;28;20208;-73
2023/06/08 02:12:43;;;;;;;20.75;12.32;;;13.20;99.90;;;;;;4968928;28;20594;-71
2023/06/08 02:15:11;;;;;;;24.98;13.13;;;13.10;99.90;;;;;;4971343;28;20296;-71
2023/06/08 02:17:38;;;;;;;22.38;12.80;;;13.10;99.90;;;;;;4969258;28;20284;-73
2023/06/08 02:20:07;;;;;;;19.83;13.43;;;13.10;99.90;;;;;;4964974;28;20237;-73
2023/06/08 02:22:35;;;;;;;19.70;14.07;;;13.10;99.90;;;;;;4970200;28;20634;-74
2023/06/08 02:25:02;;;;;;;21.58;12.90;;;13.20;99.90;;;;;;4971854;28;20213;-73
2023/06/08 02:27:29;;;;;;;20.95;12.05;;;13.20;99.90;;;;;;4970083;28;20202;-74
2023/06/08 02:29:58;;;;;;;21.85;12.65;;;13.30;99.90;;;;;;4965877;28;20224;-74
2023/06/08 02:32:26;;;;;;;22.73;13.82;;;13.30;99.90;;;;;;4967865;28;20233;-73
2023/06/08 02:34:56;;;;;;;20.88;12.32;;;13.20;99.90;;;;;;4971887;28;20293;-74
2023/06/08 02:37:24;;;;;;;22.17;12.23;;;13.20;99.90;;;;;;4968471;28;20206;-73
2023/06/08 02:39:51;;;;;;;21.63;12.25;;;13.20;99.90;;;;;;4974836;28;20234;-76
2023/06/08 02:42:19;;;;;;;22.95;12.90;;;13.10;99.90;;;;;;4978614;28;20256;-71
2023/06/08 02:44:46;;;;;;;18.35;12.27;;;13.10;99.90;;;;;;4979426;28;20221;-72
2023/06/08 02:47:13;;;;;;;17.60;11.68;;;13.10;99.90;;;;;;4966526;28;20208;-74
2023/06/08 02:49:42;;;;;;;27.88;12.48;;;13.10;99.90;;;;;;4969097;28;20333;-74
2023/06/08 02:52:09;;;;;;;19.40;11.73;;;13.20;99.90;;;;;;4964111;28;20225;-72
2023/06/08 02:54:36;;;;;;;18.77;12.40;;;13.20;99.90;;;;;;4969952;28;20206;-73
2023/06/08 02:57:09;;;;;;;20.65;12.70;;;13.10;99.90;;;;;;4971846;28;20245;-74
2023/06/08 02:59:37;;;;;;;21.85;12.98;;;13.10;99.90;;;;;;4966693;28;20259;-74
2023/06/08 03:02:04;;;;;;;16.02;10.93;;;13.10;99.90;;;;;;4964500;28;20290;-74
2023/06/08 03:04:38;;;;;;;25.42;12.32;;;13.10;99.90;;;;;;4971288;28;20217;-73
2023/06/08 03:07:09;;;;;;;19.02;13.18;;;13.10;99.90;;;;;;4980215;28;20202;-74
2023/06/08 03:09:36;;;;;;;18.30;11.68;;;13.10;99.90;;;;;;4969583;28;20203;-73
2023/06/08 03:12:05;;;;;;;15.07;11.70;;;13.10;99.90;;;;;;4971862;28;20229;-74
2023/06/08 03:14:32;;;;;;;22.75;12.38;;;13.10;99.90;;;;;;4970076;28;20230;-75
2023/06/08 03:17:02;;;;;;;26.10;12.50;;;13.00;99.90;;;;;;4972218;28;20214;-72
2023/06/08 03:19:30;;;;;;;22.45;12.90;;;13.10;99.90;;;;;;4975977;28;20202;-74
2023/06/08 03:21:57;;;;;;;26.00;12.90;;;13.10;99.90;;;;;;4964832;28;20274;-72
2023/06/08 03:24:28;;;;;;;22.17;12.20;;;13.10;99.90;;;;;;4977719;28;20198;-74
2023/06/08 03:26:56;;;;;;;21.58;13.98;;;13.10;99.90;;;;;;4973514;28;20210;-73
2023/06/08 03:29:23;;;;;;;21.80;16.27;;;13.10;99.90;;;;;;4971187;28;20211;-75
2023/06/08 03:31:50;;;;;;;26.30;14.50;;;13.10;99.90;;;;;;4966166;28;20301;-73
2023/06/08 03:34:17;;;;;;;31.52;15.43;;;13.10;99.90;;;;;;4963405;28;20309;-74
2023/06/08 03:36:44;;;;;;;30.67;15.50;;;13.20;99.90;;;;;;4964782;28;20207;-72
2023/06/08 03:39:12;;;;;;;28.10;12.30;;;13.10;99.90;;;;;;4968591;28;20201;-74
2023/06/08 03:41:40;;;;;;;19.88;13.00;;;13.10;99.90;;;;;;4975124;28;20206;-73
2023/06/08 03:44:07;;;;;;;25.42;15.55;;;13.20;99.90;;;;;;4976592;28;20206;-72
2023/06/08 03:46:34;;;;;;;22.70;13.65;;;13.20;99.90;;;;;;4964611;28;20213;-72
2023/06/08 03:49:01;;;;;;;24.98;14.48;;;13.20;99.90;;;;;;4964869;28;20230;-72
2023/06/08 03:51:28;;;;;;;25.75;12.80;;;13.20;99.90;;;;;;4966466;28;20242;-73
2023/06/08 03:53:55;;;;;;;21.98;13.35;;;13.20;99.90;;;;;;4970119;28;20317;-72
2023/06/08 03:56:22;;;;;;;27.33;14.20;;;13.20;99.90;;;;;;4967765;28;20206;-72
2023/06/08 03:58:52;;;;;;;21.35;13.70;;;13.20;99.90;;;;;;4971772;28;20207;-73
2023/06/08 04:01:22;;;;;;;25.17;12.77;;;13.20;99.90;;;;;;4970848;28;20214;-72
2023/06/08 04:03:49;;;;;;;24.20;13.23;;;13.30;99.90;;;;;;4972330;28;20256;-71
2023/06/08 04:06:16;;;;;;;29.02;13.70;;;13.30;99.90;;;;;;4971573;28;20214;-74
2023/06/08 04:08:44;;;;;;;22.05;14.48;;;13.40;99.90;;;;;;4980024;28;20293;-75
2023/06/08 04:11:12;;;;;;;24.75;14.55;;;13.50;99.90;;;;;;4972210;28;20230;-73
2023/06/08 04:13:39;;;;;;;20.10;11.93;;;13.60;99.90;;;;;;4978090;28;20236;-72
2023/06/08 04:16:09;;;;;;;17.55;13.10;;;13.50;99.90;;;;;;4980545;28;20270;-71
2023/06/08 04:18:36;;;;;;;21.77;14.50;;;13.50;99.90;;;;;;4981524;28;20211;-72
2023/06/08 04:21:05;;;;;;;25.30;12.80;;;13.60;99.90;;;;;;4976890;28;20203;-72
2023/06/08 04:23:33;;;;;;;22.25;13.23;;;13.60;99.90;;;;;;4971564;28;20249;-73
2023/06/08 04:26:01;;;;;;;20.70;13.27;;;13.60;99.90;;;;;;4971112;28;20681;-73
2023/06/08 04:28:29;;;;;;;21.73;11.38;;;13.60;99.90;;;;;;4963269;28;20298;-74
2023/06/08 04:30:59;;;;;;;21.50;13.43;;;13.70;99.90;;;;;;4968867;28;20233;-74
2023/06/08 04:33:29;;;;;;;22.55;13.88;;;13.80;99.90;;;;;;4964188;28;20265;-72
2023/06/08 04:35:56;;;;;;;24.98;12.75;;;13.80;99.90;;;;;;4969224;28;20202;-72
2023/06/08 04:38:23;;;;;;;21.75;15.70;;;13.90;99.90;;;;;;4974816;28;20262;-71
2023/06/08 04:40:52;;;;;;;28.98;15.85;;;13.90;99.90;;;;;;4974883;28;20645;-72
2023/06/08 04:43:20;;;;;;;27.85;15.60;;;13.90;99.90;;;;;;4973485;28;20237;-74
2023/06/08 04:45:51;;;;;;;28.17;14.82;;;13.90;99.90;;;;;;4963659;28;20224;-74
2023/06/08 04:48:19;;;;;;;25.90;16.00;;;14.00;99.90;;;;;;4965462;28;20212;-72
2023/06/08 04:50:50;;;;;;;41.78;19.70;;;14.10;99.90;;;;;;4967322;28;20217;-73
2023/06/08 04:53:17;;;;;;;25.10;13.32;;;14.10;99.90;;;;;;4970120;28;20236;-73
2023/06/08 04:55:45;;;;;;;28.30;15.82;;;14.20;99.90;;;;;;4967264;28;20281;-76
2023/06/08 04:58:12;;;;;;;24.15;14.63;;;14.30;99.90;;;;;;4969903;28;20230;-73
2023/06/08 05:00:39;;;;;;;30.27;14.85;;;14.30;99.90;;;;;;4969304;28;20207;-74
2023/06/08 05:03:06;;;;;;;33.05;16.45;;;14.40;99.90;;;;;;4970236;28;20405;-74
2023/06/08 05:05:33;;;;;;;25.60;15.40;;;14.60;99.90;;;;;;4967252;28;20229;-72
2023/06/08 05:08:01;;;;;;;24.48;18.77;;;14.60;99.90;;;;;;4965951;28;20275;-73
2023/06/08 05:10:28;;;;;;;33.42;16.98;;;14.60;99.90;;;;;;4967173;28;20249;-74
2023/06/08 05:12:56;;;;;;;32.92;17.25;;;14.70;99.90;;;;;;4966706;28;20234;-73
2023/06/08 05:15:25;;;;;;;38.78;18.45;;;14.80;99.90;;;;;;4969080;28;20618;-73
2023/06/08 05:17:53;;;;;;;23.17;15.30;;;14.90;99.90;;;;;;4966245;28;20219;-74
2023/06/08 05:20:20;;;;;;;33.05;18.60;;;15.00;99.90;;;;;;4968944;28;20636;-73
2023/06/08 05:22:47;;;;;;;32.45;17.65;;;15.10;99.90;;;;;;4972511;28;20249;-75
2023/06/08 05:25:15;;;;;;;25.58;17.13;;;15.20;99.90;;;;;;4968862;28;20293;-73
2023/06/08 05:27:42;;;;;;;29.60;13.77;;;15.30;99.90;;;;;;4971239;28;20204;-72
2023/06/08 05:30:09;;;;;;;24.27;15.25;;;15.50;99.90;;;;;;4967764;28;20243;-73
2023/06/08 05:32:36;;;;;;;31.98;19.13;;;15.60;99.90;;;;;;4968517;28;20283;-73
2023/06/08 05:35:04;;;;;;;38.35;19.58;;;15.70;99.90;;;;;;4962799;28;20295;-74
2023/06/08 05:37:31;;;;;;;37.40;22.92;;;15.80;99.90;;;;;;4968627;28;20290;-75
2023/06/08 05:39:58;;;;;;;22.73;15.00;;;15.90;99.90;;;;;;4972088;28;20219;-74
2023/06/08 05:42:26;;;;;;;19.30;12.57;;;16.30;99.90;;;;;;4967604;28;20835;-73
2023/06/08 05:44:53;;;;;;;19.50;11.63;;;16.90;99.90;;;;;;4968953;28;20449;-73
2023/06/08 05:47:20;;;;;;;19.20;9.90;;;17.60;99.90;;;;;;4965754;28;20817;-73
2023/06/08 05:49:47;;;;;;;16.27;11.30;;;18.20;99.90;;;;;;4967812;28;20430;-72
2023/06/08 05:52:14;;;;;;;17.70;9.87;;;18.60;99.90;;;;;;4968197;28;20564;-74
2023/06/08 05:54:41;;;;;;;19.10;10.17;;;19.10;99.90;;;;;;4966446;28;20611;-73
2023/06/08 05:57:07;;;;;;;12.83;9.13;;;19.50;99.90;;;;;;4968637;28;20464;-74
2023/06/08 05:59:36;;;;;;;16.47;10.03;;;19.90;99.90;;;;;;4963240;28;20536;-73
2023/06/08 06:02:03;;;;;;;12.93;8.80;;;20.90;99.90;;;;;;4966248;28;20476;-73
2023/06/08 06:04:30;;;;;;;13.40;9.57;;;22.10;97.50;;;;;;4964438;28;20468;-75
2023/06/08 06:06:56;;;;;;;13.30;8.50;;;23.00;94.60;;;;;;4966742;28;20457;-74
2023/06/08 06:09:23;;;;;;;18.60;10.57;;;23.50;92.40;;;;;;4968875;28;20509;-72
2023/06/08 06:11:50;;;;;;;15.13;10.53;;;24.20;91.10;;;;;;4963934;28;20809;-72
2023/06/08 06:14:17;;;;;;;13.77;8.70;;;24.50;89.80;;;;;;4964800;28;20477;-73
2023/06/08 06:16:46;;;;;;;12.63;8.93;;;24.80;88.30;;;;;;4961369;28;20462;-75
2023/06/08 06:19:12;;;;;;;12.03;7.73;;;25.30;86.80;;;;;;4968870;28;20520;-72
2023/06/08 06:21:40;;;;;;;16.13;8.43;;;25.90;84.70;;;;;;4963256;28;20810;-74
2023/06/08 06:24:08;;;;;;;12.60;8.90;;;26.40;83.10;;;;;;4964041;28;20976;-75
2023/06/08 06:26:35;;;;;;;12.17;8.90;;;26.70;80.70;;;;;;4965739;28;20481;-74
2023/06/08 06:29:02;;;;;;;11.20;7.97;;;26.80;80.60;;;;;;4971723;28;20481;-73
2023/06/08 06:31:30;;;;;;;10.17;7.20;;;26.70;80.10;;;;;;4968758;28;20457;-72
2023/06/08 06:33:59;;;;;;;13.70;8.47;;;27.00;79.60;;;;;;4977153;28;20485;-69
2023/06/08 06:36:27;;;;;;;11.83;8.30;;;27.10;79.00;;;;;;4975052;28;20533;-74
2023/06/08 06:38:55;;;;;;;14.10;8.00;;;27.30;78.10;;;;;;4966039;28;20457;-73
2023/06/08 06:41:22;;;;;;;13.30;9.10;;;27.30;77.70;;;;;;4968912;28;20513;-73
2023/06/08 06:43:49;;;;;;;18.63;10.10;;;27.50;76.90;;;;;;4969213;28;20534;-73
2023/06/08 06:46:20;;;;;;;13.53;8.33;;;27.80;76.90;;;;;;4967533;28;20880;-73
2023/06/08 06:48:47;;;;;;;12.00;8.60;;;27.90;75.90;;;;;;4970955;28;20872;-73
2023/06/08 06:51:22;;;;;;;13.27;7.50;;;27.40;76.80;;;;;;4967843;28;20525;-73
2023/06/08 06:53:49;;;;;;;14.97;7.73;;;27.50;77.40;;;;;;4962690;28;20581;-72
2023/06/08 06:56:16;;;;;;;15.63;8.50;;;27.30;76.40;;;;;;4965656;28;20541;-72
2023/06/08 06:58:44;;;;;;;16.20;7.90;;;27.10;77.10;;;;;;4975716;28;20485;-73
2023/06/08 07:01:12;;;;;;;12.67;7.97;;;26.70;77.60;;;;;;4967894;28;20485;-72
2023/06/08 07:03:42;;;;;;;17.27;7.77;;;26.40;79.00;;;;;;4971176;28;20477;-71
2023/06/08 07:06:10;;;;;;;11.03;6.47;;;26.10;79.90;;;;;;4970387;28;20523;-74
2023/06/08 07:08:39;;;;;;;23.07;9.30;;;26.20;80.60;;;;;;4974239;28;21077;-73
2023/06/08 07:11:06;;;;;;;10.30;6.70;;;26.70;78.80;;;;;;4977452;28;20526;-72
2023/06/08 07:13:33;;;;;;;11.43;7.20;;;27.40;78.00;;;;;;4979826;28;20992;-72
2023/06/08 07:16:03;;;;;;;18.37;7.90;;;27.70;76.70;;;;;;4979225;28;20468;-73
2023/06/08 07:18:30;;;;;;;13.87;7.80;;;28.00;76.40;;;;;;4976128;28;20445;-72
2023/06/08 07:20:57;;;;;;;11.60;6.90;;;28.70;74.60;;;;;;4976439;28;20501;-73
2023/06/08 07:23:24;;;;;;;19.53;7.60;;;28.90;73.90;;;;;;4969389;28;20805;-73
2023/06/08 07:25:52;;;;;;;17.53;10.00;;;29.20;73.10;;;;;;4970842;28;20541;-74
2023/06/08 07:28:20;;;;;;;13.40;8.07;;;29.40;72.50;;;;;;4968562;28;20530;-74
2023/06/08 07:30:47;;;;;;;11.20;8.40;;;29.60;72.30;;;;;;4968395;28;20456;-73
2023/06/08 07:33:15;;;;;;;14.50;8.17;;;30.10;71.10;;;;;;4971229;28;20924;-73
2023/06/08 07:35:42;;;;;;;17.53;8.63;;;30.10;70.50;;;;;;4967903;28;20477;-73
2023/06/08 07:38:10;;;;;;;17.50;9.47;;;30.50;70.10;;;;;;4967928;28;20447;-72
2023/06/08 07:40:37;;;;;;;19.77;8.90;;;30.30;69.20;;;;;;4968816;28;20886;-74
2023/06/08 07:43:05;;;;;;;14.60;9.13;;;30.30;69.40;;;;;;4968531;28;20909;-73
2023/06/08 07:45:32;;;;;;;13.00;8.77;;;30.40;69.70;;;;;;4969191;28;20532;-74
2023/06/08 07:48:00;;;;;;;9.93;6.83;;;30.40;68.90;;;;;;4966795;28;20458;-73
2023/06/08 07:50:27;;;;;;;13.17;7.70;;;30.20;69.30;;;;;;4971689;28;20509;-74
2023/06/08 07:52:54;;;;;;;11.00;7.80;;;30.20;69.20;;;;;;4967462;28;20470;-73
2023/06/08 07:55:21;;;;;;;9.30;6.70;;;30.40;69.50;;;;;;4976128;28;20512;-71
2023/06/08 07:57:48;;;;;;;10.30;7.40;;;30.70;68.90;;;;;;4973793;28;20449;-73
2023/06/08 08:00:17;;;;;;;10.40;6.17;;;31.40;67.90;;;;;;4980368;28;20449;-73
2023/06/08 08:02:46;;;;;;;11.37;7.07;;;31.80;66.80;;;;;;4971230;28;20472;-74
2023/06/08 08:05:13;;;;;;;16.80;11.30;;;31.60;65.80;;;;;;4968670;28;20485;-71
2023/06/08 08:07:45;;;;;;;12.73;7.73;;;31.30;66.80;;;;;;4965077;28;20454;-74
2023/06/08 08:10:12;;;;;;;12.03;6.73;;;31.30;67.10;;;;;;4964391;28;20518;-74
2023/06/08 08:12:39;;;;;;;10.63;7.37;;;31.70;66.60;;;;;;4964778;28;20462;-72
2023/06/08 08:15:10;;;;;;;9.63;6.43;;;32.30;65.60;;;;;;4968518;28;20557;-74
2023/06/08 08:17:41;;;;;;;12.03;6.40;;;32.80;64.60;;;;;;4969539;28;20473;-73
2023/06/08 08:20:10;;;;;;;13.77;7.80;;;32.60;64.30;;;;;;4971785;28;20532;-74
2023/06/08 08:22:38;;;;;;;9.83;6.20;;;32.40;64.20;;;;;;4971929;28;20472;-73
2023/06/08 08:25:06;;;;;;;15.30;7.60;;;32.20;64.60;;;;;;4976930;28;20458;-73
2023/06/08 08:27:33;;;;;;;8.53;6.40;;;32.10;64.70;;;;;;4976602;28;20459;-73
2023/06/08 08:30:00;;;;;;;11.60;6.70;;;32.20;64.20;;;;;;4969887;28;20442;-73
2023/06/08 08:32:26;;;;;;;14.03;6.33;;;31.90;64.60;;;;;;4976772;28;20501;-72
2023/06/08 08:34:55;;;;;;;9.53;7.27;;;32.20;64.90;;;;;;4973130;28;20469;-72
2023/06/08 08:37:23;;;;;;;8.67;6.80;;;32.70;64.50;;;;;;4982834;28;20470;-74
2023/06/08 08:39:50;;;;;;;10.40;6.10;;;33.20;63.30;;;;;;4976031;28;20678;-75
2023/06/08 08:42:23;;;;;;;13.13;6.90;;;33.40;62.60;;;;;;4968005;28;20561;-73
2023/06/08 08:44:54;;;;;;;10.23;5.70;;;33.40;62.60;;;;;;4968817;28;20481;-71
2023/06/08 08:47:23;;;;;;;13.57;7.47;;;33.50;62.90;;;;;;4966107;28;21100;-73
2023/06/08 08:49:57;;;;;;;12.63;7.80;;;32.90;62.90;;;;;;4963805;28;20494;-72
2023/06/08 08:52:30;;;;;;;8.57;6.07;;;32.00;63.70;;;;;;4963814;28;20544;-72
2023/06/08 08:55:00;;;;;;;11.93;6.13;;;31.40;66.30;;;;;;4962040;28;20482;-72
2023/06/08 08:57:29;;;;;;;17.03;7.47;;;31.80;66.40;;;;;;4966860;28;20461;-74
2023/06/08 08:59:56;;;;;;;13.10;7.20;;;32.10;65.30;;;;;;4961204;28;20437;-74
2023/06/08 09:02:23;;;;;;;10.03;6.77;;;32.30;65.50;;;;;;4970019;28;20480;-73
2023/06/08 09:04:50;;;;;;;12.57;7.00;;;32.80;64.50;;;;;;4971037;28;20544;-73
2023/06/08 09:07:24;;;;;;;12.63;7.90;;;32.90;63.70;;;;;;4961253;28;20528;-72
2023/06/08 09:10:17;;;;;;;11.07;6.93;;;32.80;63.40;;;;;;4968920;28;20449;-72
2023/06/08 09:12:45;;;;;;;14.63;7.30;;;32.60;64.30;;;;;;4967906;28;20469;-74
2023/06/08 09:15:14;;;;;;;12.13;6.90;;;32.70;64.10;;;;;;4966309;28;20520;-74
2023/06/08 09:17:44;;;;;;;11.93;6.03;;;32.90;63.70;;;;;;4969312;28;20441;-74
2023/06/08 09:20:12;;;;;;;10.43;5.60;;;32.90;63.70;;;;;;4962621;28;20543;-73
2023/06/08 09:22:41;;;;;;;7.90;6.10;;;32.90;63.70;;;;;;4966600;28;20523;-73
2023/06/08 09:25:09;;;;;;;7.30;6.20;;;32.70;63.40;;;;;;4967401;28;20450;-73
2023/06/08 09:27:37;;;;;;;11.40;6.00;;;32.80;63.40;;;;;;4959383;28;20490;-72
2023/06/08 09:30:23;;;;;;;15.63;6.87;;;32.50;63.70;;;;;;4961638;28;20509;-73
2023/06/08 09:32:50;;;;;;;10.67;6.27;;;32.10;65.30;;;;;;4965378;28;20794;-74
2023/06/08 09:35:23;;;;;;;9.27;6.37;;;32.10;65.40;;;;;;4961423;28;20536;-73
2023/06/08 09:37:54;;;;;;;12.10;6.77;;;32.20;65.70;;;;;;4971473;28;20446;-75
2023/06/08 09:40:22;;;;;;;11.67;6.07;;;32.20;64.50;;;;;;4965604;28;20449;-73
2023/06/08 09:42:53;;;;;;;12.63;7.10;;;31.80;65.00;;;;;;4971779;28;20492;-73
2023/06/08 09:45:21;;;;;;;10.00;7.40;;;31.80;65.90;;;;;;4973822;28;20494;-72
2023/06/08 09:47:48;;;;;;;9.43;6.60;;;31.60;65.90;;;;;;4963355;28;20453;-73
2023/06/08 09:50:15;;;;;;;10.77;6.60;;;31.50;66.60;;;;;;4966775;28;20478;-74
2023/06/08 09:52:46;;;;;;;13.60;6.67;;;31.50;66.50;;;;;;4969045;28;20528;-74
2023/06/08 09:55:17;;;;;;;10.33;5.53;;;31.40;67.10;;;;;;4967786;28;20831;-74
2023/06/08 09:57:46;;;;;;;9.37;5.70;;;31.50;67.30;;;;;;4965574;28;20856;-75
2023/06/08 10:00:17;;;;;;;9.83;6.30;;;32.00;66.80;;;;;;4968407;28;20869;-74
2023/06/08 10:02:54;;;;;;;9.47;6.17;;;32.60;65.80;;;;;;4968394;28;20478;-73
2023/06/08 10:05:22;;;;;;;13.00;6.60;;;32.60;64.90;;;;;;4971929;28;20460;-74
2023/06/08 10:07:52;;;;;;;12.37;5.60;;;32.20;65.20;;;;;;4971450;28;20525;-75
2023/06/08 10:10:22;;;;;;;11.50;6.57;;;32.20;66.20;;;;;;4970273;28;20453;-73
2023/06/08 10:12:49;;;;;;;10.93;6.33;;;32.00;65.80;;;;;;4965281;28;20843;-75
2023/06/08 10:15:17;;;;;;;9.27;5.23;;;32.00;66.80;;;;;;4973405;28;20647;-74
2023/06/08 10:17:44;;;;;;;10.07;6.10;;;32.10;66.90;;;;;;4969406;28;20525;-73
2023/06/08 10:20:16;;;;;;;11.33;6.10;;;32.90;65.70;;;;;;4971895;28;20453;-74
2023/06/08 10:22:45;;;;;;;9.20;5.47;;;32.80;64.70;;;;;;4968643;28;20553;-75
2023/06/08 10:25:13;;;;;;;8.50;5.80;;;32.70;65.30;;;;;;4969019;28;20451;-74
2023/06/08 10:27:48;;;;;;;11.43;6.90;;;32.40;65.10;;;;;;4970345;28;20446;-72
2023/06/08 10:30:27;;;;;;;8.43;5.60;;;31.90;65.50;;;;;;4968838;28;20458;-73
2023/06/08 10:32:55;;;;;;;12.63;5.80;;;31.70;66.80;;;;;;4966595;28;20558;-71
2023/06/08 10:35:23;;;;;;;16.00;6.30;;;31.40;66.70;;;;;;4968663;28;20485;-72
2023/06/08 10:37:50;;;;;;;7.87;6.50;;;30.80;67.80;;;;;;4969622;28;20450;-72
2023/06/08 10:40:20;;;;;;;6.73;4.97;;;30.20;69.00;;;;;;4972440;28;20485;-73
2023/06/08 10:42:59;;;;;;;9.67;5.97;;;29.80;70.70;;;;;;4973428;28;20483;-73
2023/06/08 10:45:32;;;;;;;9.03;6.93;;;29.40;70.80;;;;;;4973192;28;20445;-73
2023/06/08 10:48:09;;;;;;;9.90;5.33;;;29.10;72.60;;;;;;4974327;28;20461;-71
2023/06/08 10:50:42;;;;;;;7.87;6.00;;;29.10;72.60;;;;;;4977212;28;20454;-73
2023/06/08 10:53:10;;;;;;;9.23;6.53;;;29.10;73.20;;;;;;4964732;28;20826;-73
2023/06/08 10:55:38;;;;;;;12.00;6.23;;;28.90;73.60;;;;;;4971158;28;20478;-73
2023/06/08 10:58:17;;;;;;;11.33;6.60;;;28.90;73.90;;;;;;4964299;28;20450;-75
2023/06/08 11:00:46;;;;;;;15.43;6.57;;;28.90;73.60;;;;;;4965236;28;20519;-74
2023/06/08 11:03:18;;;;;;;9.87;7.00;;;28.90;73.80;;;;;;4968245;28;20502;-73
2023/06/08 11:05:50;;;;;;;10.30;5.40;;;28.90;73.70;;;;;;4968466;28;20504;-74
2023/06/08 11:08:17;;;;;;;15.83;6.10;;;29.10;73.40;;;;;;4970894;28;20457;-71
2023/06/08 11:10:47;;;;;;;8.93;5.70;;;28.90;73.10;;;;;;4968438;28;20452;-73
2023/06/08 11:13:16;;;;;;;9.10;5.70;;;28.70;73.30;;;;;;4969416;28;20469;-74
2023/06/08 11:15:46;;;;;;;10.10;5.27;;;28.70;74.30;;;;;;4971904;28;20477;-74
2023/06/08 11:18:13;;;;;;;7.33;5.10;;;28.80;74.10;;;;;;4972421;28;20449;-72
2023/06/08 11:20:41;;;;;;;12.87;6.47;;;28.80;75.00;;;;;;4961348;28;20446;-74
2023/06/08 11:23:10;;;;;;;10.40;5.10;;;28.90;74.30;;;;;;4965409;28;20463;-75
2023/06/08 11:25:38;;;;;;;9.67;6.33;;;29.00;73.80;;;;;;4971279;28;20453;-74
2023/06/08 11:28:07;;;;;;;9.20;6.07;;;29.00;73.20;;;;;;4971586;28;20442;-74
2023/06/08 11:30:36;;;;;;;14.47;5.97;;;29.00;73.80;;;;;;4970034;28;20953;-73
2023/06/08 11:33:06;;;;;;;9.03;6.00;;;29.00;74.30;;;;;;4969503;28;20851;-74
2023/06/08 11:35:33;;;;;;;8.80;5.80;;;28.80;73.40;;;;;;4967386;28;20568;-76
2023/06/08 11:38:00;;;;;;;8.90;6.07;;;28.60;73.80;;;;;;4965010;28;20505;-74
2023/06/08 11:40:29;;;;;;;8.87;7.73;;;28.60;74.10;;;;;;4971539;28;20454;-73
2023/06/08 11:42:57;;;;;;;9.73;5.90;;;28.60;74.30;;;;;;4970315;28;20994;-74
2023/06/08 11:45:25;;;;;;;10.00;5.60;;;28.70;74.50;;;;;;4979447;28;20461;-73
2023/06/08 11:47:54;;;;;;;11.93;5.33;;;28.60;74.10;;;;;;4969067;28;20480;-73
2023/06/08 11:50:22;;;;;;;7.40;5.50;;;28.50;73.70;;;;;;4971812;28;20441;-72
2023/06/08 11:52:49;;;;;;;9.60;6.03;;;28.50;74.50;;;;;;4967222;28;20461;-72
2023/06/08 11:55:24;;;;;;;9.90;6.13;;;28.30;74.80;;;;;;4974682;28;20516;-73
2023/06/08 11:57:55;;;;;;;11.10;6.70;;;28.40;74.60;;;;;;4967724;28;20505;-74
2023/06/08 12:00:25;;;;;;;7.07;4.57;;;28.20;74.90;;;;;;4969340;28;20913;-73
2023/06/08 12:02:55;;;;;;;7.80;5.57;;;28.20;75.00;;;;;;4975013;28;20577;-73
2023/06/08 12:05:24;;;;;;;8.50;6.07;;;28.20;75.20;;;;;;4966178;28;20553;-73
2023/06/08 12:07:58;;;;;;;7.50;5.67;;;28.10;74.90;;;;;;4968747;28;20454;-73
2023/06/08 12:10:33;;;;;;;12.30;6.30;;;28.10;74.70;;;;;;4962757;28;20450;-74
2023/06/08 12:13:01;;;;;;;8.77;5.67;;;28.10;74.60;;;;;;4966660;28;20466;-73
2023/06/08 12:15:27;;;;;;;12.00;5.90;;;28.10;74.50;;;;;;4963556;28;20481;-73
2023/06/08 12:18:02;;;;;;;9.80;6.10;;;28.20;74.30;;;;;;4969345;28;20469;-73
2023/06/08 12:20:31;;;;;;;6.13;5.50;;;28.20;74.10;;;;;;4960827;28;20917;-74
2023/06/08 12:22:58;;;;;;;7.27;5.97;;;28.20;73.90;;;;;;4963558;28;20941;-73
2023/06/08 12:25:29;;;;;;;8.50;5.57;;;28.20;73.70;;;;;;4969827;28;20504;-77
2023/06/08 12:27:56;;;;;;;9.00;5.73;;;28.20;74.00;;;;;;4967220;28;20446;-74
2023/06/08 12:30:24;;;;;;;10.37;7.37;;;28.20;73.80;;;;;;4974315;28;20473;-72
2023/06/08 12:32:55;;;;;;;6.97;5.80;;;28.20;73.70;;;;;;4965591;28;20471;-72
2023/06/08 12:35:24;;;;;;;9.83;6.40;;;28.10;73.70;;;;;;4969374;28;20486;-72
2023/06/08 12:37:51;;;;;;;7.70;6.53;;;28.20;75.10;;;;;;4967900;28;20450;-74
2023/06/08 12:40:19;;;;;;;9.23;5.77;;;28.20;73.60;;;;;;4967910;28;20485;-73